createdAt,value
2022-10-25T00:01:29.728Z,99956.56
2022-10-25T00:03:57.954Z,99952.06
2022-10-25T00:06:25.823Z,99949.72
2022-10-25T00:08:53.617Z,99941.69
2022-10-25T00:11:25.678Z,99936.31
2022-10-25T00:13:55.707Z,99939.56
2022-10-25T00:16:29.954Z,99938.59
2022-10-25T00:18:57.403Z,99934.56
2022-10-25T00:21:25.115Z,99938.31
2022-10-25T00:23:53.553Z,99929.94
2022-10-25T00:26:21.389Z,99930.69
2022-10-25T00:28:49.233Z,99927.59
2022-10-25T00:31:18.495Z,99934.56
2022-10-25T00:33:46.379Z,99939.06
2022-10-25T00:36:24.778Z,99939.56
2022-10-25T00:38:53.460Z,99936.72
2022-10-25T00:41:27.559Z,99932.09
2022-10-25T00:44:16.784Z,99927.75
2022-10-25T00:46:45.650Z,99930.53
2022-10-25T00:49:20.410Z,99929.31
2022-10-25T00:51:58.108Z,99932.13
2022-10-25T00:54:34.238Z,99924.38
2022-10-25T00:57:14.973Z,99916.19
2022-10-25T00:59:44.047Z,99922.72
2022-10-25T01:02:12.813Z,99915.41
2022-10-25T01:04:41.273Z,99922.84
2022-10-25T01:07:08.726Z,99922.34
2022-10-25T01:09:38.439Z,99913.66
2022-10-25T01:12:06.307Z,99916.66
2022-10-25T01:14:43.315Z,99912.59
2022-10-25T01:17:19.982Z,99905.72
2022-10-25T01:20:11.071Z,99898.59
2022-10-25T01:22:56.815Z,99907.09
2022-10-25T01:26:08.803Z,99915.59
2022-10-25T01:29:17.183Z,99906.34
2022-10-25T01:32:32.664Z,99915.47
2022-10-25T01:35:53.351Z,99910.09
2022-10-25T01:38:33.070Z,99915.22
2022-10-25T01:41:50.126Z,99911.78
2022-10-25T01:45:03.044Z,99905.72
2022-10-25T01:47:39.743Z,99912.31
2022-10-25T01:50:25.323Z,99906.28
2022-10-25T01:55:24.921Z,99899.97
2022-10-25T01:58:00.349Z,99896.41
2022-10-25T02:00:28.699Z,99902.25
2022-10-25T02:03:21.450Z,99900.00
2022-10-25T02:06:24.010Z,99897.84
2022-10-25T02:09:03.156Z,99897.06
2022-10-25T02:11:32.889Z,99905.56
2022-10-25T02:14:26.524Z,99900.88
2022-10-25T02:17:02.431Z,99895.72
2022-10-25T02:19:59.640Z,99900.78
2022-10-25T02:22:31.107Z,99896.22
2022-10-25T02:24:59.241Z,99893.41
2022-10-25T02:27:27.253Z,99893.59
2022-10-25T02:29:55.544Z,99898.47
2022-10-25T02:32:23.319Z,99891.56
2022-10-25T02:34:51.321Z,99897.72
2022-10-25T02:37:19.262Z,99905.78
2022-10-25T02:39:46.907Z,99913.47
2022-10-25T02:42:14.361Z,99915.75
2022-10-25T02:44:41.756Z,99914.25
2022-10-25T02:47:09.341Z,99909.72
2022-10-25T02:49:36.779Z,99911.94
2022-10-25T02:52:04.361Z,99905.78
2022-10-25T02:54:31.820Z,99896.63
2022-10-25T02:56:59.202Z,99903.47
2022-10-25T02:59:26.751Z,99900.78
2022-10-25T03:01:54.315Z,99896.78
2022-10-25T03:04:21.898Z,99893.03
2022-10-25T03:06:49.403Z,99898.28
2022-10-25T03:09:16.842Z,99903.50
2022-10-25T03:11:44.311Z,99907.81
2022-10-25T03:14:11.716Z,99904.53
2022-10-25T03:16:39.181Z,99903.13
2022-10-25T03:19:06.637Z,99903.50
2022-10-25T03:21:36.596Z,99894.59
2022-10-25T03:24:07.390Z,99900.19
2022-10-25T03:26:34.803Z,99897.50
2022-10-25T03:29:02.223Z,99887.25
2022-10-25T03:31:29.802Z,99895.06
2022-10-25T03:33:57.267Z,99896.75
2022-10-25T03:36:24.661Z,99887.97
2022-10-25T03:38:52.090Z,99888.97
2022-10-25T03:41:19.614Z,99887.41
2022-10-25T03:43:46.979Z,99888.06
2022-10-25T03:46:14.430Z,99900.97
2022-10-25T03:48:41.879Z,99906.88
2022-10-25T03:51:09.473Z,99893.56
2022-10-25T03:53:36.898Z,99902.03
2022-10-25T03:56:04.583Z,99901.56
2022-10-25T03:58:32.094Z,99895.16
2022-10-25T04:01:00.021Z,99898.34
2022-10-25T04:03:27.535Z,99893.03
2022-10-25T04:05:54.916Z,99887.91
2022-10-25T04:08:22.443Z,99888.09
2022-10-25T04:10:49.804Z,99886.25
2022-10-25T04:13:17.298Z,99886.59
2022-10-25T04:15:44.820Z,99872.91
2022-10-25T04:18:12.205Z,99875.66
2022-10-25T04:20:39.675Z,99875.06
2022-10-25T04:23:07.114Z,99873.34
2022-10-25T04:25:34.694Z,99889.72
2022-10-25T04:28:02.299Z,99888.19
2022-10-25T04:30:29.877Z,99883.66
2022-10-25T04:32:59.942Z,99888.19
2022-10-25T04:35:27.453Z,99878.66
2022-10-25T04:37:58.374Z,99880.88
2022-10-25T04:40:26.070Z,99876.09
2022-10-25T04:42:53.472Z,99873.94
2022-10-25T04:45:20.978Z,99876.81
2022-10-25T04:47:48.647Z,99874.38
2022-10-25T04:50:16.231Z,99879.56
2022-10-25T04:52:43.828Z,99869.28
2022-10-25T04:55:11.534Z,99872.91
2022-10-25T04:57:38.944Z,99877.63
2022-10-25T05:00:06.933Z,99880.09
2022-10-25T05:02:34.381Z,99881.47
2022-10-25T05:05:01.902Z,99877.25
2022-10-25T05:07:29.300Z,99873.00
2022-10-25T05:09:56.738Z,99881.63
2022-10-25T05:12:24.634Z,99883.31
2022-10-25T05:14:52.188Z,99885.00
2022-10-25T05:17:19.641Z,99888.81
2022-10-25T05:19:48.522Z,99890.19
2022-10-25T05:22:15.903Z,99894.59
2022-10-25T05:24:43.374Z,99891.00
2022-10-25T05:27:10.794Z,99890.19
2022-10-25T05:29:38.383Z,99896.69
2022-10-25T05:32:06.047Z,99903.72
2022-10-25T05:34:33.670Z,99900.00
2022-10-25T05:37:01.200Z,99895.50
2022-10-25T05:39:28.611Z,99900.47
2022-10-25T05:41:56.065Z,99906.69
2022-10-25T05:44:23.543Z,99913.25
2022-10-25T05:46:51.818Z,99917.03
2022-10-25T05:49:19.504Z,99908.44
2022-10-25T05:51:46.907Z,99914.47
2022-10-25T05:54:16.214Z,99916.50
2022-10-25T05:56:44.170Z,99913.91
2022-10-25T05:59:14.531Z,99923.34
2022-10-25T06:01:45.775Z,99920.22
2022-10-25T06:04:14.991Z,99924.53
2022-10-25T06:06:44.985Z,99926.50
2022-10-25T06:09:13.511Z,99934.91
2022-10-25T06:11:41.518Z,99936.06
2022-10-25T06:14:10.881Z,99933.66
2022-10-25T06:16:38.685Z,99945.69
2022-10-25T06:19:06.618Z,99940.75
2022-10-25T06:21:34.120Z,99940.03
2022-10-25T06:24:01.593Z,99940.41
2022-10-25T06:26:30.865Z,99941.28
2022-10-25T06:29:03.210Z,99950.81
2022-10-25T06:31:33.723Z,99961.50
2022-10-25T06:34:02.362Z,99953.56
2022-10-25T06:36:31.406Z,99942.91
2022-10-25T06:39:05.808Z,99938.28
2022-10-25T06:41:36.875Z,99938.34
2022-10-25T06:44:07.137Z,99944.00
2022-10-25T06:47:04.350Z,99935.38
2022-10-25T06:49:26.439Z,99940.91
2022-10-25T06:51:54.099Z,99933.97
2022-10-25T06:54:21.526Z,99940.25
2022-10-25T06:56:48.936Z,99940.81
2022-10-25T06:59:16.432Z,99936.38
2022-10-25T07:01:44.225Z,99933.84
2022-10-25T07:04:11.778Z,99941.91
2022-10-25T07:06:39.745Z,99936.69
2022-10-25T07:09:09.399Z,99939.66
2022-10-25T07:11:37.402Z,99943.22
2022-10-25T07:14:04.984Z,99939.06
2022-10-25T07:16:32.761Z,99944.03
2022-10-25T07:19:04.674Z,99942.22
2022-10-25T07:21:33.754Z,99941.63
2022-10-25T07:24:01.403Z,99943.47
2022-10-25T07:26:32.470Z,99945.81
2022-10-25T07:29:02.766Z,99939.97
2022-10-25T07:31:34.768Z,99943.22
2022-10-25T07:34:04.997Z,99942.28
2022-10-25T07:36:32.681Z,99938.03
2022-10-25T07:39:00.835Z,99937.19
2022-10-25T07:41:31.340Z,99930.72
2022-10-25T07:43:58.862Z,99931.03
2022-10-25T07:46:26.502Z,99932.50
2022-10-25T07:48:54.043Z,99927.44
2022-10-25T07:51:21.579Z,99924.47
2022-10-25T07:53:49.956Z,99930.88
2022-10-25T07:56:23.248Z,99931.22
2022-10-25T07:58:54.397Z,99923.75
2022-10-25T08:01:28.585Z,99926.28
2022-10-25T08:03:57.065Z,99918.75
2022-10-25T08:06:26.031Z,99920.31
2022-10-25T08:08:53.664Z,99909.97
2022-10-25T08:11:21.222Z,99910.03
2022-10-25T08:13:50.752Z,99910.31
2022-10-25T08:16:18.768Z,99910.72
2022-10-25T08:18:46.292Z,99910.38
2022-10-25T08:21:14.684Z,99898.66
2022-10-25T08:23:42.140Z,99905.09
2022-10-25T08:26:09.736Z,99894.69
2022-10-25T08:28:37.117Z,99894.78
2022-10-25T08:31:04.823Z,99895.34
2022-10-25T08:33:33.890Z,99894.34
2022-10-25T08:36:03.077Z,99879.53
2022-10-25T08:38:31.007Z,99877.41
2022-10-25T08:41:29.953Z,99879.53
2022-10-25T08:45:04.099Z,99875.19
2022-10-25T08:47:43.375Z,99874.66
2022-10-25T08:50:33.246Z,99871.03
2022-10-25T08:53:05.979Z,99871.88
2022-10-25T08:55:44.489Z,99864.09
2022-10-25T08:58:58.267Z,99863.63
2022-10-25T09:01:41.350Z,99856.41
2022-10-25T09:04:09.751Z,99851.88
2022-10-25T09:07:18.243Z,99851.94
2022-10-25T09:10:23.463Z,99840.47
2022-10-25T09:13:10.525Z,99838.56
2022-10-25T09:15:54.748Z,99833.19
2022-10-25T09:18:36.703Z,99833.91
2022-10-25T09:21:31.761Z,99825.63
2022-10-25T09:24:12.327Z,99822.31
2022-10-25T09:26:44.540Z,99823.78
2022-10-25T09:29:24.493Z,99817.97
2022-10-25T09:31:59.378Z,99814.44
2022-10-25T09:34:35.641Z,99814.78
2022-10-25T09:37:27.104Z,99806.28
2022-10-25T09:40:05.023Z,99795.56
2022-10-25T09:42:44.606Z,99804.09
2022-10-25T09:45:29.237Z,99798.16
2022-10-25T09:48:36.468Z,99797.84
2022-10-25T09:51:08.128Z,99786.78
2022-10-25T09:53:40.775Z,99786.03
2022-10-25T09:56:08.729Z,99784.16
2022-10-25T09:58:44.975Z,99777.16
2022-10-25T10:01:19.108Z,99776.47
2022-10-25T10:03:50.227Z,99766.47
2022-10-25T10:06:35.982Z,99766.19
2022-10-25T10:09:10.810Z,99760.50
2022-10-25T10:11:38.615Z,99768.44
2022-10-25T10:14:36.546Z,99769.16
2022-10-25T10:17:08.088Z,99769.19
2022-10-25T10:19:35.521Z,99763.97
2022-10-25T10:22:09.801Z,99768.34
2022-10-25T10:24:43.593Z,99759.56
2022-10-25T10:27:32.705Z,99757.41
2022-10-25T10:30:07.459Z,99760.09
2022-10-25T10:35:28.591Z,99736.75
2022-10-25T10:38:23.066Z,99731.13
2022-10-25T10:41:11.904Z,99727.16
2022-10-25T10:43:39.367Z,99727.03
2022-10-25T10:46:19.922Z,99733.47
2022-10-25T10:48:56.082Z,99733.13
2022-10-25T10:51:43.978Z,99729.00
2022-10-25T10:54:31.362Z,99731.56
2022-10-25T10:57:03.288Z,99724.81
2022-10-25T10:59:56.620Z,99720.69
2022-10-25T11:02:42.803Z,99724.06
2022-10-25T11:05:33.924Z,99712.69
2022-10-25T11:08:03.539Z,99707.50
2022-10-25T11:10:41.849Z,99712.53
2022-10-25T11:13:20.768Z,99701.44
2022-10-25T11:16:10.155Z,99708.91
2022-10-25T11:18:46.091Z,99704.88
2022-10-25T11:21:29.131Z,99697.00
2022-10-25T11:24:11.215Z,99690.81
2022-10-25T11:27:28.077Z,99697.63
2022-10-25T11:30:20.453Z,99698.59
2022-10-25T11:33:12.765Z,99696.13
2022-10-25T11:36:27.439Z,99695.63
2022-10-25T11:39:13.053Z,99686.09
2022-10-25T11:41:53.770Z,99687.03
2022-10-25T11:44:54.715Z,99691.59
2022-10-25T11:47:57.882Z,99673.50
2022-10-25T11:51:17.317Z,99672.31
2022-10-25T11:53:47.320Z,99676.75
2022-10-25T11:56:42.002Z,99668.53
2022-10-25T11:59:45.588Z,99673.78
2022-10-25T12:02:57.479Z,99670.31
2022-10-25T12:05:57.232Z,99671.03
2022-10-25T12:08:50.727Z,99667.97
2022-10-25T12:11:28.574Z,99659.34
2022-10-25T12:14:09.380Z,99666.69
2022-10-25T12:16:38.335Z,99665.78
2022-10-25T12:19:19.475Z,99655.50
2022-10-25T12:22:01.936Z,99651.44
2022-10-25T12:24:44.547Z,99653.22
2022-10-25T12:27:13.379Z,99645.59
2022-10-25T12:29:48.276Z,99639.31
2022-10-25T12:32:23.646Z,99641.53
2022-10-25T12:34:54.354Z,99635.47
2022-10-25T12:37:31.588Z,99634.53
2022-10-25T12:39:59.304Z,99630.47
2022-10-25T12:42:44.603Z,99630.81
2022-10-25T12:45:45.965Z,99627.00
2022-10-25T12:49:09.370Z,99624.84
2022-10-25T12:52:00.885Z,99620.00
2022-10-25T12:54:55.959Z,99615.31
2022-10-25T12:57:26.583Z,99615.72
2022-10-25T13:00:09.914Z,99620.00
2022-10-25T13:03:18.563Z,99612.72
2022-10-25T13:06:45.082Z,99608.88
2022-10-25T13:09:21.027Z,99610.22
2022-10-25T13:12:07.849Z,99611.34
2022-10-25T13:14:53.800Z,99611.88
2022-10-25T13:17:21.217Z,99610.59
2022-10-25T13:19:54.606Z,99601.81
2022-10-25T13:22:35.998Z,99604.28
2022-10-25T13:25:08.801Z,99602.13
2022-10-25T13:27:37.095Z,99596.47
2022-10-25T13:30:04.745Z,99604.44
2022-10-25T13:32:43.568Z,99605.69
2022-10-25T13:35:22.806Z,99598.97
2022-10-25T13:38:09.606Z,99602.06
2022-10-25T13:40:38.603Z,99594.06
2022-10-25T13:43:20.879Z,99597.34
2022-10-25T13:45:55.703Z,99587.91
2022-10-25T13:48:37.245Z,99586.94
2022-10-25T13:51:13.006Z,99590.78
2022-10-25T13:53:52.632Z,99586.50
2022-10-25T13:56:23.917Z,99583.69
2022-10-25T13:58:56.561Z,99582.78
2022-10-25T14:01:27.077Z,99582.53
2022-10-25T14:04:18.318Z,99576.00
2022-10-25T14:06:45.885Z,99576.38
2022-10-25T14:09:34.352Z,99572.94
2022-10-25T14:12:01.764Z,99572.66
2022-10-25T14:14:48.080Z,99571.88
2022-10-25T14:17:42.092Z,99572.03
2022-10-25T14:20:30.930Z,99565.31
2022-10-25T14:23:03.339Z,99569.28
2022-10-25T14:25:38.315Z,99565.97
2022-10-25T14:28:21.229Z,99566.31
2022-10-25T14:31:01.132Z,99568.16
2022-10-25T14:33:45.980Z,99575.56
2022-10-25T14:36:36.993Z,99578.53
2022-10-25T14:39:19.880Z,99578.78
2022-10-25T14:41:57.416Z,99580.13
2022-10-25T14:44:29.649Z,99586.28
2022-10-25T14:46:59.743Z,99586.38
2022-10-25T14:49:28.812Z,99581.78
2022-10-25T14:52:07.298Z,99575.84
2022-10-25T14:54:36.027Z,99576.63
2022-10-25T14:57:06.970Z,99576.03
2022-10-25T14:59:42.717Z,99576.97
2022-10-25T15:02:41.195Z,99560.69
2022-10-25T15:05:20.816Z,99558.84
2022-10-25T15:07:54.003Z,99551.41
2022-10-25T15:11:00.728Z,99556.66
2022-10-25T15:13:43.856Z,99557.97
2022-10-25T15:16:44.162Z,99556.97
2022-10-25T15:19:19.340Z,99556.47
2022-10-25T15:21:50.541Z,99557.16
2022-10-25T15:24:23.317Z,99562.09
2022-10-25T15:27:02.043Z,99555.00
2022-10-25T15:32:26.444Z,99555.22
2022-10-25T15:35:01.099Z,99564.94
2022-10-25T15:37:30.599Z,99562.41
2022-10-25T15:39:58.284Z,99549.59
2022-10-25T15:42:27.100Z,99551.78
2022-10-25T15:44:56.086Z,99544.94
2022-10-25T15:47:32.972Z,99553.06
2022-10-25T15:50:04.187Z,99544.28
2022-10-25T15:52:31.627Z,99548.19
2022-10-25T15:54:59.126Z,99545.97
2022-10-25T15:57:27.443Z,99550.66
2022-10-25T15:59:55.052Z,99549.53
2022-10-25T16:02:28.488Z,99542.00
2022-10-25T16:04:56.087Z,99553.88
2022-10-25T16:07:23.685Z,99557.69
2022-10-25T16:09:51.135Z,99566.91
2022-10-25T16:12:30.789Z,99564.59
2022-10-25T16:14:58.511Z,99572.59
2022-10-25T16:17:26.507Z,99570.31
2022-10-25T16:19:53.934Z,99572.22
2022-10-25T16:22:21.379Z,99578.31
2022-10-25T16:24:50.035Z,99575.66
2022-10-25T16:27:17.438Z,99580.59
2022-10-25T16:29:47.030Z,99589.41
2022-10-25T16:32:14.550Z,99590.53
2022-10-25T16:34:46.000Z,99592.03
2022-10-25T16:37:13.433Z,99604.53
2022-10-25T16:39:40.931Z,99606.81
2022-10-25T16:42:28.299Z,99602.97
2022-10-25T16:44:57.047Z,99604.44
2022-10-25T16:47:24.745Z,99599.91
2022-10-25T16:49:52.307Z,99607.19
2022-10-25T16:52:20.642Z,99608.75
2022-10-25T16:54:49.173Z,99611.34
2022-10-25T16:57:16.898Z,99616.97
2022-10-25T16:59:44.524Z,99614.22
2022-10-25T17:02:24.879Z,99616.84
2022-10-25T17:04:53.701Z,99612.28
2022-10-25T17:07:21.181Z,99616.13
2022-10-25T17:09:48.728Z,99611.94
2022-10-25T17:12:16.139Z,99621.53
2022-10-25T17:14:44.008Z,99615.81
2022-10-25T17:17:11.678Z,99605.06
2022-10-25T17:19:39.170Z,99612.97
2022-10-25T17:22:07.355Z,99602.75
2022-10-25T17:24:37.902Z,99592.47
2022-10-25T17:27:06.795Z,99597.84
2022-10-25T17:29:35.498Z,99603.16
2022-10-25T17:32:04.948Z,99606.94
2022-10-25T17:34:32.996Z,99610.41
2022-10-25T17:37:02.329Z,99611.84
2022-10-25T17:39:31.516Z,99607.97
2022-10-25T17:41:59.075Z,99610.34
2022-10-25T17:44:26.636Z,99617.13
2022-10-25T17:46:56.441Z,99621.25
2022-10-25T17:49:27.099Z,99623.91
2022-10-25T17:51:54.637Z,99623.09
2022-10-25T17:54:22.150Z,99624.22
2022-10-25T17:56:49.742Z,99624.16
2022-10-25T17:59:17.355Z,99627.97
2022-10-25T18:01:49.131Z,99632.69
2022-10-25T18:04:16.978Z,99636.50
2022-10-25T18:06:45.830Z,99639.69
2022-10-25T18:09:19.297Z,99641.19
2022-10-25T18:11:49.743Z,99640.22
2022-10-25T18:14:20.083Z,99646.19
2022-10-25T18:16:48.034Z,99637.97
2022-10-25T18:19:20.043Z,99645.97
2022-10-25T18:21:47.806Z,99650.88
2022-10-25T18:24:15.557Z,99652.69
2022-10-25T18:26:48.639Z,99652.84
2022-10-25T18:29:18.078Z,99654.47
2022-10-25T18:31:45.756Z,99645.63
2022-10-25T18:34:14.496Z,99648.50
2022-10-25T18:36:43.681Z,99653.66
2022-10-25T18:39:13.590Z,99659.75
2022-10-25T18:41:42.634Z,99663.22
2022-10-25T18:44:15.157Z,99652.88
2022-10-25T18:46:44.014Z,99655.81
2022-10-25T18:49:16.504Z,99658.88
2022-10-25T18:51:44.999Z,99659.19
2022-10-25T18:54:12.864Z,99663.03
2022-10-25T18:56:41.923Z,99661.84
2022-10-25T18:59:10.824Z,99660.88
2022-10-25T19:01:39.918Z,99651.31
2022-10-25T19:04:07.655Z,99654.38
2022-10-25T19:06:36.428Z,99646.09
2022-10-25T19:09:04.839Z,99633.59
2022-10-25T19:11:33.937Z,99642.34
2022-10-25T19:14:03.242Z,99641.88
2022-10-25T19:16:30.866Z,99645.38
2022-10-25T19:19:04.627Z,99643.13
2022-10-25T19:21:32.309Z,99654.78
2022-10-25T19:24:00.039Z,99650.19
2022-10-25T19:26:27.674Z,99651.41
2022-10-25T19:29:00.348Z,99654.13
2022-10-25T19:31:29.618Z,99657.69
2022-10-25T19:34:00.627Z,99659.94
2022-10-25T19:36:28.616Z,99662.03
2022-10-25T19:38:56.449Z,99666.16
2022-10-25T19:41:26.025Z,99664.69
2022-10-25T19:43:56.595Z,99660.47
2022-10-25T19:46:24.362Z,99663.50
2022-10-25T19:48:51.907Z,99660.19
2022-10-25T19:51:21.164Z,99665.91
2022-10-25T19:53:50.385Z,99671.16
2022-10-25T19:56:21.375Z,99665.03
2022-10-25T19:58:50.598Z,99675.31
2022-10-25T20:01:25.210Z,99668.44
2022-10-25T20:03:57.954Z,99673.81
2022-10-25T20:06:32.083Z,99682.16
2022-10-25T20:09:01.442Z,99683.88
2022-10-25T20:11:29.665Z,99687.66
2022-10-25T20:14:01.883Z,99680.81
2022-10-25T20:16:32.268Z,99680.91
2022-10-25T20:19:02.227Z,99680.50
2022-10-25T20:21:35.990Z,99688.56
2022-10-25T20:24:08.166Z,99688.91
2022-10-25T20:26:41.261Z,99697.22
2022-10-25T20:29:21.078Z,99688.28
2022-10-25T20:31:51.180Z,99696.09
2022-10-25T20:34:20.137Z,99696.19
2022-10-25T20:36:48.991Z,99695.59
2022-10-25T20:39:16.590Z,99686.50
2022-10-25T20:41:44.258Z,99688.69
2022-10-25T20:44:12.143Z,99690.75
2022-10-25T20:46:39.693Z,99701.38
2022-10-25T20:49:07.549Z,99704.22
2022-10-25T20:51:35.451Z,99704.72
2022-10-25T20:54:09.335Z,99707.16
2022-10-25T20:56:37.388Z,99705.28
2022-10-25T20:59:05.331Z,99704.16
2022-10-25T21:01:33.204Z,99700.97
2022-10-25T21:04:00.800Z,99706.31
2022-10-25T21:06:28.310Z,99711.63
2022-10-25T21:08:55.794Z,99720.78
2022-10-25T21:11:23.265Z,99724.06
2022-10-25T21:13:50.927Z,99726.00
2022-10-25T21:16:18.489Z,99721.03
2022-10-25T21:18:45.947Z,99722.69
2022-10-25T21:21:19.041Z,99718.38
2022-10-25T21:23:56.599Z,99724.41
2022-10-25T21:26:24.756Z,99720.88
2022-10-25T21:28:52.260Z,99729.91
2022-10-25T21:31:20.290Z,99722.63
2022-10-25T21:33:50.218Z,99728.47
2022-10-25T21:36:20.242Z,99730.25
2022-10-25T21:38:48.001Z,99729.78
2022-10-25T21:41:26.702Z,99741.09
2022-10-25T21:43:55.711Z,99738.31
2022-10-25T21:46:24.830Z,99742.84
2022-10-25T21:48:52.519Z,99741.19
2022-10-25T21:51:21.936Z,99742.97
2022-10-25T21:53:49.519Z,99731.16
2022-10-25T21:56:20.146Z,99732.31
2022-10-25T21:58:51.445Z,99735.91
2022-10-25T22:01:24.903Z,99727.03
2022-10-25T22:03:55.660Z,99731.03
2022-10-25T22:06:25.402Z,99725.09
2022-10-25T22:08:55.574Z,99728.78
2022-10-25T22:11:27.014Z,99732.69
2022-10-25T22:14:00.179Z,99746.13
2022-10-25T22:16:28.487Z,99741.94
2022-10-25T22:19:05.531Z,99741.84
2022-10-25T22:21:37.665Z,99745.53
2022-10-25T22:24:08.501Z,99737.13
2022-10-25T22:26:39.243Z,99748.19
2022-10-25T22:29:07.538Z,99751.84
2022-10-25T22:31:35.343Z,99756.09
2022-10-25T22:34:05.934Z,99745.63
2022-10-25T22:36:37.302Z,99759.69
2022-10-25T22:39:06.363Z,99749.28
2022-10-25T22:41:34.797Z,99751.44
2022-10-25T22:44:02.803Z,99761.31
2022-10-25T22:46:35.537Z,99765.84
2022-10-25T22:49:09.103Z,99760.44
2022-10-25T22:51:38.151Z,99766.81
2022-10-25T22:54:06.112Z,99759.84
2022-10-25T22:56:34.380Z,99761.84
2022-10-25T22:59:05.142Z,99765.88
2022-10-25T23:01:36.394Z,99771.69
2022-10-25T23:04:07.923Z,99769.00
2022-10-25T23:06:38.732Z,99771.38
2022-10-25T23:09:09.693Z,99773.88
2022-10-25T23:11:40.387Z,99783.00
2022-10-25T23:14:13.440Z,99787.69
2022-10-25T23:16:44.507Z,99779.31
2022-10-25T23:19:11.940Z,99786.56
2022-10-25T23:21:39.361Z,99785.47
2022-10-25T23:24:07.076Z,99784.03
2022-10-25T23:26:36.660Z,99784.19
2022-10-25T23:29:05.184Z,99781.63
2022-10-25T23:31:33.074Z,99788.78
2022-10-25T23:34:01.393Z,99784.72
2022-10-25T23:36:37.750Z,99795.00
2022-10-25T23:39:08.048Z,99800.75
2022-10-25T23:41:35.861Z,99799.97
2022-10-25T23:44:03.927Z,99799.50
2022-10-25T23:46:31.443Z,99804.47
2022-10-25T23:48:59.021Z,99801.50
2022-10-25T23:51:26.619Z,99809.97
2022-10-25T23:53:54.070Z,99807.81
2022-10-25T23:56:21.617Z,99803.38
2022-10-25T23:58:53.677Z,99805.38
